createdAt,value
2022-09-23T00:02:12.540Z,48.10
2022-09-23T00:04:38.998Z,47.66
2022-09-23T00:07:05.904Z,47.77
2022-09-23T00:09:32.253Z,47.83
2022-09-23T00:11:58.624Z,48.01
2022-09-23T00:14:25.169Z,48.10
2022-09-23T00:16:51.769Z,47.49
2022-09-23T00:19:18.189Z,47.45
2022-09-23T00:21:44.748Z,47.46
2022-09-23T00:24:11.283Z,47.56
2022-09-23T00:26:37.678Z,47.71
2022-09-23T00:29:04.563Z,48.04
2022-09-23T00:31:30.934Z,47.54
2022-09-23T00:33:57.315Z,47.80
2022-09-23T00:36:23.813Z,47.58
2022-09-23T00:38:50.258Z,47.59
2022-09-23T00:41:16.586Z,48.11
2022-09-23T00:43:43.510Z,47.99
2022-09-23T00:46:09.979Z,48.24
2022-09-23T00:48:36.378Z,48.02
2022-09-23T00:51:02.967Z,48.19
2022-09-23T00:53:29.329Z,48.71
2022-09-23T00:55:55.720Z,48.54
2022-09-23T00:58:22.437Z,48.08
2022-09-23T01:00:48.865Z,48.52
2022-09-23T01:03:15.217Z,49.05
2022-09-23T01:05:41.629Z,48.43
2022-09-23T01:08:08.029Z,48.41
2022-09-23T01:10:34.499Z,48.23
2022-09-23T01:13:00.953Z,48.32
2022-09-23T01:15:27.363Z,48.20
2022-09-23T01:17:53.726Z,48.28
2022-09-23T01:20:20.231Z,48.53
2022-09-23T01:22:46.672Z,48.03
2022-09-23T01:25:13.177Z,47.78
2022-09-23T01:27:39.869Z,47.73
2022-09-23T01:30:06.464Z,47.83
2022-09-23T01:32:33.143Z,48.01
2022-09-23T01:34:59.839Z,47.91
2022-09-23T01:37:26.380Z,47.74
2022-09-23T01:39:52.725Z,47.83
2022-09-23T01:42:19.204Z,48.21
2022-09-23T01:44:45.604Z,49.11
2022-09-23T01:47:12.016Z,49.18
2022-09-23T01:49:39.498Z,48.82
2022-09-23T01:52:05.899Z,48.91
2022-09-23T01:54:32.322Z,48.67
2022-09-23T01:56:58.972Z,49.19
2022-09-23T01:59:25.540Z,49.06
2022-09-23T02:01:51.876Z,49.67
2022-09-23T02:04:18.435Z,49.46
2022-09-23T02:06:45.000Z,49.80
2022-09-23T02:09:11.330Z,49.81
2022-09-23T02:11:38.054Z,49.72
2022-09-23T02:14:04.488Z,49.33
2022-09-23T02:16:31.001Z,49.43
2022-09-23T02:18:57.903Z,49.85
2022-09-23T02:21:24.224Z,49.46
2022-09-23T02:23:50.579Z,49.71
2022-09-23T02:26:17.337Z,49.62
2022-09-23T02:28:43.666Z,50.02
2022-09-23T02:31:10.060Z,49.85
2022-09-23T02:33:36.618Z,49.52
2022-09-23T02:36:03.967Z,49.65
2022-09-23T02:38:30.380Z,49.32
2022-09-23T02:40:56.937Z,50.09
2022-09-23T02:43:23.260Z,50.90
2022-09-23T02:45:49.753Z,50.82
2022-09-23T02:48:16.400Z,50.63
2022-09-23T02:50:42.784Z,50.46
2022-09-23T02:53:09.130Z,50.34
2022-09-23T02:55:35.746Z,50.94
2022-09-23T02:58:02.085Z,51.44
2022-09-23T03:00:28.413Z,51.63
2022-09-23T03:02:54.820Z,51.36
2022-09-23T03:05:21.180Z,51.62
2022-09-23T03:07:47.676Z,50.92
2022-09-23T03:10:14.765Z,50.29
2022-09-23T03:12:41.100Z,50.31
2022-09-23T03:15:07.441Z,49.63
2022-09-23T03:17:34.082Z,50.10
2022-09-23T03:20:00.402Z,50.42
2022-09-23T03:22:26.738Z,50.15
2022-09-23T03:24:54.264Z,49.45
2022-09-23T03:27:20.718Z,49.95
2022-09-23T03:29:47.139Z,50.75
2022-09-23T03:32:13.833Z,50.98
2022-09-23T03:34:40.216Z,50.48
2022-09-23T03:37:06.760Z,50.61
2022-09-23T03:39:33.241Z,50.87
2022-09-23T03:41:59.675Z,50.50
2022-09-23T03:44:25.986Z,50.65
2022-09-23T03:46:52.433Z,50.36
2022-09-23T03:49:18.841Z,51.72
2022-09-23T03:51:45.226Z,51.13
2022-09-23T03:54:11.668Z,51.13
2022-09-23T05:02:12.856Z,48.36
2022-09-23T05:04:39.400Z,48.34
2022-09-23T05:07:05.749Z,48.25
2022-09-23T05:09:32.174Z,48.38
2022-09-23T05:11:58.640Z,48.43
2022-09-23T05:14:25.138Z,48.39
2022-09-23T05:16:51.770Z,48.18
2022-09-23T05:19:18.113Z,47.55
2022-09-23T05:21:44.485Z,46.90
2022-09-23T05:24:11.011Z,47.17
2022-09-23T05:26:37.371Z,47.75
2022-09-23T05:29:03.942Z,48.17
2022-09-23T05:31:30.748Z,47.95
2022-09-23T05:33:57.260Z,48.53
2022-09-23T05:36:23.607Z,48.44
2022-09-23T05:38:50.247Z,48.86
2022-09-23T05:41:16.688Z,50.33
2022-09-23T05:43:43.057Z,50.15
2022-09-23T05:46:09.568Z,49.54
2022-09-23T05:48:36.010Z,50.18
2022-09-23T05:51:02.405Z,50.11
2022-09-23T05:53:28.997Z,51.20
2022-09-23T05:55:55.477Z,50.40
2022-09-23T05:58:21.858Z,49.88
2022-09-23T06:00:48.414Z,49.41
2022-09-23T06:03:15.937Z,48.75
2022-09-23T06:05:42.304Z,48.92
2022-09-23T06:08:09.255Z,48.83
2022-09-23T06:10:35.635Z,48.29
2022-09-23T06:13:02.151Z,48.30
2022-09-23T06:15:28.780Z,48.29
2022-09-23T06:17:55.165Z,48.35
2022-09-23T06:20:21.508Z,48.04
2022-09-23T06:22:52.114Z,48.08
2022-09-23T06:25:20.500Z,47.89
2022-09-23T06:27:46.855Z,47.92
2022-09-23T06:30:13.292Z,47.73
2022-09-23T06:32:40.214Z,47.71
2022-09-23T06:35:08.458Z,48.50
2022-09-23T06:37:37.067Z,48.62
2022-09-23T06:40:03.506Z,49.25
2022-09-23T06:42:30.043Z,48.84
2022-09-23T06:44:56.800Z,48.71
2022-09-23T06:47:23.209Z,48.64
2022-09-23T06:49:50.625Z,48.19
2022-09-23T06:52:17.204Z,48.34
2022-09-23T06:54:43.743Z,48.04
2022-09-23T06:57:10.364Z,48.13
2022-09-23T06:59:36.874Z,48.10
2022-09-23T07:02:03.498Z,48.43
2022-09-23T07:04:30.160Z,48.07
2022-09-23T07:06:56.848Z,48.22
2022-09-23T07:09:23.444Z,47.77
2022-09-23T07:11:49.796Z,47.79
2022-09-23T07:14:16.336Z,48.21
2022-09-23T07:16:42.786Z,48.23
2022-09-23T07:19:09.183Z,47.79
2022-09-23T07:21:35.985Z,47.75
2022-09-23T07:24:02.343Z,47.73
2022-09-23T07:26:28.916Z,47.55
2022-09-23T07:28:55.609Z,47.18
2022-09-23T07:31:35.675Z,46.01
2022-09-23T07:34:04.739Z,47.03
2022-09-23T07:36:31.219Z,46.80
2022-09-23T07:38:57.570Z,47.00
2022-09-23T07:41:24.422Z,46.69
2022-09-23T07:43:50.789Z,47.09
2022-09-23T07:46:17.349Z,46.57
2022-09-23T07:48:44.223Z,46.88
2022-09-23T07:51:10.758Z,46.60
2022-09-23T07:53:37.150Z,45.23
2022-09-23T07:56:03.627Z,46.34
2022-09-23T07:58:30.407Z,46.22
2022-09-23T08:00:56.801Z,45.98
2022-09-23T08:03:23.295Z,46.24
2022-09-23T08:05:49.766Z,45.87
2022-09-23T08:08:16.220Z,43.76
2022-09-23T08:10:43.014Z,45.81
2022-09-23T08:13:09.513Z,45.24
2022-09-23T08:15:36.133Z,45.00
2022-09-23T08:18:02.824Z,45.08
2022-09-23T08:20:29.395Z,44.48
2022-09-23T08:22:55.708Z,43.45
2022-09-23T08:25:22.795Z,43.40
2022-09-23T08:27:49.186Z,44.32
2022-09-23T08:30:15.521Z,44.79
2022-09-23T08:32:41.994Z,44.93
2022-09-23T08:35:08.581Z,44.11
2022-09-23T08:37:34.944Z,44.68
2022-09-23T08:40:01.442Z,44.61
2022-09-23T08:42:27.973Z,44.56
2022-09-23T08:44:54.304Z,43.31
2022-09-23T08:47:21.100Z,42.03
2022-09-23T08:49:47.766Z,43.12
2022-09-23T08:52:14.106Z,43.83
2022-09-23T08:54:41.411Z,43.46
2022-09-23T08:57:07.902Z,43.05
2022-09-23T08:59:34.412Z,43.48
2022-09-23T09:02:01.019Z,43.61
2022-09-23T09:04:27.396Z,43.39
2022-09-23T09:06:55.871Z,43.60
2022-09-23T09:09:26.738Z,43.43
2022-09-23T09:11:53.193Z,43.25
2022-09-23T09:14:19.615Z,42.00
2022-09-23T09:16:59.353Z,43.46
2022-09-23T09:19:26.628Z,43.15
2022-09-23T09:21:53.076Z,43.27
2022-09-23T09:24:19.684Z,42.93
2022-09-23T09:26:46.096Z,43.57
2022-09-23T09:29:31.313Z,43.83
2022-09-23T09:31:59.215Z,44.25
2022-09-23T09:34:25.664Z,44.34
2022-09-23T09:36:52.154Z,43.70
2022-09-23T09:39:21.870Z,43.74
2022-09-23T09:41:52.089Z,40.84
2022-09-23T09:44:18.759Z,42.42
2022-09-23T09:46:45.259Z,42.76
2022-09-23T09:49:11.797Z,41.48
2022-09-23T09:51:38.226Z,42.02
2022-09-23T09:54:04.795Z,40.33
2022-09-23T09:56:31.475Z,40.01
2022-09-23T09:58:58.378Z,40.14
2022-09-23T10:01:27.718Z,40.23
2022-09-23T10:03:56.950Z,40.68
2022-09-23T10:06:23.584Z,39.62
2022-09-23T10:08:51.424Z,37.01
2022-09-23T10:11:17.964Z,38.56
2022-09-23T10:13:46.762Z,39.43
2022-09-23T10:16:13.386Z,39.32
2022-09-23T10:18:40.336Z,38.21
2022-09-23T10:21:06.876Z,39.52
2022-09-23T10:23:33.376Z,40.19
2022-09-23T10:25:59.909Z,41.01
2022-09-23T10:28:26.699Z,39.82
2022-09-23T10:30:53.147Z,40.17
2022-09-23T10:33:19.761Z,40.15
2022-09-23T10:35:46.418Z,39.95
2022-09-23T10:38:12.792Z,40.49
2022-09-23T10:40:40.219Z,39.86
2022-09-23T10:43:07.041Z,40.35
2022-09-23T10:45:33.543Z,39.54
2022-09-23T10:48:00.251Z,39.64
2022-09-23T10:50:26.796Z,39.32
2022-09-23T10:52:53.314Z,40.84
2022-09-23T10:55:20.046Z,39.55
2022-09-23T10:57:46.611Z,38.46
2022-09-23T11:00:12.984Z,40.08
2022-09-23T11:02:40.047Z,39.61
2022-09-23T11:05:06.552Z,39.61
2022-09-23T11:07:37.322Z,39.12
2022-09-23T11:10:03.908Z,39.58
2022-09-23T11:12:30.349Z,39.74
2022-09-23T11:14:57.793Z,38.39
2022-09-23T11:17:24.392Z,38.03
2022-09-23T11:19:51.562Z,38.18
2022-09-23T11:22:18.009Z,38.28
2022-09-23T11:24:44.435Z,37.02
2022-09-23T11:27:11.059Z,37.51
2022-09-23T11:29:37.412Z,37.88
2022-09-23T11:32:03.941Z,36.85
2022-09-23T11:34:30.334Z,37.54
2022-09-23T11:36:56.691Z,38.17
2022-09-23T11:39:23.162Z,38.61
2022-09-23T11:41:50.657Z,37.74
2022-09-23T11:44:17.079Z,38.71
2022-09-23T11:46:43.611Z,38.59
2022-09-23T11:49:10.014Z,36.87
2022-09-23T11:51:36.380Z,37.04
2022-09-23T11:54:02.922Z,36.17
2022-09-23T11:56:35.394Z,36.65
2022-09-23T11:59:03.645Z,37.33
2022-09-23T12:01:37.237Z,37.31
2022-09-23T12:04:15.785Z,36.32
2022-09-23T12:06:45.908Z,34.69
2022-09-23T12:09:12.320Z,34.47
2022-09-23T12:11:38.742Z,35.72
2022-09-23T12:14:05.095Z,36.61
2022-09-23T12:16:31.682Z,36.95
2022-09-23T12:18:58.099Z,36.20
2022-09-23T12:21:48.770Z,36.45
2022-09-23T12:24:12.549Z,34.41
2022-09-23T12:26:41.497Z,35.38
2022-09-23T12:29:07.897Z,35.97
2022-09-23T12:31:37.541Z,35.90
2022-09-23T12:34:07.602Z,34.27
2022-09-23T12:36:34.323Z,34.99
2022-09-23T12:39:00.770Z,36.61
2022-09-23T12:41:27.202Z,35.88
2022-09-23T12:43:53.946Z,37.20
2022-09-23T12:46:20.358Z,36.97
2022-09-23T12:48:46.989Z,34.50
2022-09-23T12:51:13.682Z,35.76
2022-09-23T12:53:40.395Z,35.65
2022-09-23T12:56:07.322Z,35.47
2022-09-23T12:58:34.031Z,35.96
2022-09-23T13:01:00.941Z,35.97
2022-09-23T13:03:27.423Z,36.14
2022-09-23T13:05:54.707Z,34.97
2022-09-23T13:08:21.886Z,34.66
2022-09-23T13:10:48.258Z,34.15
2022-09-23T13:13:15.036Z,34.86
2022-09-23T13:15:41.375Z,33.30
2022-09-23T13:18:07.906Z,33.89
2022-09-23T13:20:34.565Z,33.08
2022-09-23T13:23:06.327Z,32.09
2022-09-23T13:25:32.946Z,33.67
2022-09-23T13:27:59.784Z,34.06
2022-09-23T13:30:26.843Z,33.09
2022-09-23T13:32:53.395Z,30.08
2022-09-23T13:35:20.072Z,32.93
2022-09-23T13:37:46.476Z,32.02
2022-09-23T13:40:12.916Z,32.26
2022-09-23T13:42:39.675Z,33.02
2022-09-23T13:45:06.563Z,31.63
2022-09-23T13:47:33.089Z,31.07
2022-09-23T13:49:59.747Z,32.60
2022-09-23T13:52:26.279Z,31.69
2022-09-23T13:54:52.637Z,31.90
2022-09-23T13:57:19.029Z,32.33
2022-09-23T13:59:53.350Z,32.13
2022-09-23T14:02:22.074Z,32.13
2022-09-23T14:04:48.463Z,30.88
2022-09-23T14:07:15.171Z,31.29
2022-09-23T14:09:42.149Z,31.87
2022-09-23T14:12:08.759Z,31.36
2022-09-23T14:14:35.199Z,30.44
2022-09-23T14:17:01.551Z,31.06
2022-09-23T14:19:28.210Z,30.91
2022-09-23T14:21:54.830Z,31.27
2022-09-23T14:24:21.320Z,31.26
2022-09-23T14:26:47.721Z,31.69
2022-09-23T14:29:14.208Z,30.96
2022-09-23T14:31:41.088Z,29.81
2022-09-23T14:34:07.558Z,30.27
2022-09-23T14:36:34.281Z,30.56
2022-09-23T14:39:00.976Z,30.82
2022-09-23T14:41:27.327Z,31.02
2022-09-23T14:43:53.760Z,30.21
2022-09-23T14:46:20.406Z,29.92
2022-09-23T14:48:46.832Z,29.78
2022-09-23T14:51:16.917Z,30.01
2022-09-23T14:53:43.686Z,29.16
2022-09-23T14:56:10.125Z,29.75
2022-09-23T14:58:36.518Z,29.11
2022-09-23T15:01:03.082Z,28.61
2022-09-23T15:03:29.776Z,28.81
2022-09-23T15:05:57.283Z,29.60
2022-09-23T15:08:23.650Z,29.43
2022-09-23T15:10:50.219Z,29.71
2022-09-23T15:13:16.594Z,29.65
2022-09-23T15:15:43.034Z,29.95
2022-09-23T15:18:09.678Z,29.14
2022-09-23T15:20:36.094Z,29.60
2022-09-23T15:23:02.583Z,30.16
2022-09-23T15:25:29.115Z,30.45
2022-09-23T15:27:57.651Z,29.70
2022-09-23T15:30:24.170Z,28.58
2022-09-23T15:32:50.740Z,30.70
2022-09-23T15:35:17.098Z,27.63
2022-09-23T15:37:43.670Z,30.35
2022-09-23T15:40:10.277Z,30.25
2022-09-23T15:42:36.961Z,30.36
2022-09-23T15:47:31.212Z,29.47
2022-09-23T15:49:57.715Z,30.97
2022-09-23T15:52:24.344Z,31.21
2022-09-23T15:54:50.775Z,30.68
2022-09-23T15:57:17.217Z,31.25
2022-09-23T15:59:43.818Z,31.46
2022-09-23T16:02:11.464Z,30.18
2022-09-23T16:04:37.894Z,31.18
2022-09-23T16:07:04.594Z,31.42
2022-09-23T16:09:31.024Z,31.70
2022-09-23T16:11:57.382Z,31.58
2022-09-23T16:14:23.939Z,31.13
2022-09-23T16:16:50.456Z,31.45
2022-09-23T16:19:17.063Z,31.41
2022-09-23T16:21:43.679Z,31.53
2022-09-23T16:24:10.030Z,31.62
2022-09-23T16:26:36.380Z,31.31
2022-09-23T16:42:43.438Z,31.70
2022-09-23T16:45:09.887Z,32.17
2022-09-23T16:47:36.264Z,32.34
2022-09-23T16:50:02.803Z,32.25
2022-09-23T16:52:29.406Z,32.65
2022-09-23T16:54:55.821Z,32.95
2022-09-23T16:57:22.852Z,32.94
2022-09-23T16:59:49.219Z,32.48
2022-09-23T17:02:15.752Z,32.91
2022-09-23T17:04:44.104Z,32.67
2022-09-23T17:07:10.445Z,33.16
2022-09-23T17:09:36.791Z,33.13
2022-09-23T17:12:03.230Z,33.08
2022-09-23T17:14:30.044Z,33.17
2022-09-23T17:16:56.482Z,33.10
2022-09-23T17:19:22.915Z,33.65
2022-09-23T17:21:49.285Z,33.69
2022-09-23T17:24:15.641Z,33.11
2022-09-23T17:26:42.263Z,34.23
2022-09-23T17:29:08.886Z,33.92
2022-09-23T17:31:35.392Z,33.99
2022-09-23T17:34:02.336Z,34.53
2022-09-23T17:36:28.781Z,34.82
2022-09-23T17:38:55.228Z,34.65
2022-09-23T17:41:22.174Z,34.84
2022-09-23T17:43:48.601Z,35.54
2022-09-23T17:46:17.495Z,35.08
2022-09-23T17:48:46.738Z,34.75
2022-09-23T17:51:13.077Z,35.40
2022-09-23T17:53:39.448Z,35.38
2022-09-23T17:56:06.577Z,35.83
2022-09-23T17:58:32.909Z,35.24
2022-09-23T18:00:59.405Z,35.17
2022-09-23T18:03:26.305Z,35.04
2022-09-23T18:05:52.740Z,35.58
2022-09-23T18:08:19.180Z,35.76
2022-09-23T18:10:45.719Z,36.29
2022-09-23T18:13:12.270Z,36.65
2022-09-23T18:15:38.743Z,36.07
2022-09-23T18:18:05.506Z,36.46
2022-09-23T18:20:31.900Z,36.21
2022-09-23T18:22:58.235Z,36.31
2022-09-23T18:25:38.837Z,36.32
2022-09-23T18:28:06.299Z,36.50
2022-09-23T18:30:32.847Z,36.96
2022-09-23T18:32:59.780Z,37.04
2022-09-23T18:35:26.616Z,37.08
2022-09-23T18:37:53.158Z,36.00
2022-09-23T18:40:19.644Z,36.70
2022-09-23T18:42:46.203Z,36.77
2022-09-23T18:45:12.909Z,36.76
2022-09-23T18:47:40.314Z,36.43
2022-09-23T18:50:06.708Z,36.74
2022-09-23T18:52:33.375Z,36.72
2022-09-23T18:54:59.795Z,37.39
2022-09-23T18:57:26.218Z,37.57
2022-09-23T18:59:52.977Z,37.18
2022-09-23T19:02:19.673Z,36.99
2022-09-23T19:04:46.096Z,36.83
2022-09-23T19:07:12.698Z,37.44
2022-09-23T19:09:39.613Z,37.03
2022-09-23T19:12:05.995Z,37.10
2022-09-23T19:14:32.432Z,37.20
2022-09-23T19:16:58.882Z,37.38
2022-09-23T19:19:25.451Z,37.30
2022-09-23T19:21:52.167Z,37.87
2022-09-23T19:24:18.589Z,36.96
2022-09-23T19:26:45.038Z,37.74
2022-09-23T19:29:11.561Z,36.99
2022-09-23T19:31:37.985Z,37.52
2022-09-23T19:34:06.794Z,37.33
2022-09-23T19:36:33.787Z,37.85
2022-09-23T19:39:00.153Z,37.93
2022-09-23T19:41:27.529Z,37.62
2022-09-23T19:43:54.281Z,38.07
2022-09-23T19:46:20.685Z,38.11
2022-09-23T19:48:47.060Z,38.11
2022-09-23T19:51:13.496Z,37.79
2022-09-23T19:53:39.904Z,38.08
2022-09-23T19:56:06.516Z,38.30
2022-09-23T19:58:32.943Z,38.08
2022-09-23T20:00:59.350Z,38.53
2022-09-23T20:03:25.742Z,38.38
2022-09-23T20:05:52.322Z,38.00
2022-09-23T20:08:19.153Z,38.01
2022-09-23T20:10:45.523Z,38.13
2022-09-23T20:13:12.626Z,38.05
2022-09-23T20:15:39.055Z,38.00
2022-09-23T20:18:05.450Z,37.85
2022-09-23T20:20:31.924Z,38.16
2022-09-23T20:22:58.247Z,37.96
2022-09-23T20:25:24.941Z,38.06
2022-09-23T20:27:51.387Z,38.19
2022-09-23T20:30:18.806Z,38.36
2022-09-23T20:32:45.151Z,38.27
2022-09-23T20:35:11.571Z,38.18
2022-09-23T20:37:37.969Z,37.76
2022-09-23T20:40:04.365Z,38.70
2022-09-23T20:42:30.864Z,39.07
2022-09-23T20:44:57.412Z,38.74
2022-09-23T20:47:23.716Z,38.61
2022-09-23T20:49:50.274Z,38.47
2022-09-23T20:52:16.665Z,38.55
2022-09-23T20:54:43.021Z,37.99
2022-09-23T20:57:09.485Z,38.77
2022-09-23T20:59:35.877Z,38.90
2022-09-23T21:02:02.506Z,38.56
2022-09-23T21:04:29.082Z,38.72
2022-09-23T21:06:55.497Z,38.71
2022-09-23T21:09:22.328Z,38.82
2022-09-23T21:11:49.028Z,38.48
2022-09-23T21:14:15.443Z,39.14
2022-09-23T21:16:41.910Z,39.14
2022-09-23T21:19:08.651Z,38.97
2022-09-23T21:21:35.129Z,39.26
2022-09-23T21:24:23.924Z,39.16
2022-09-23T21:26:48.276Z,39.23
2022-09-23T21:29:14.718Z,39.18
2022-09-23T21:31:41.348Z,39.29
2022-09-23T21:34:07.987Z,39.26
2022-09-23T21:36:34.546Z,39.21
2022-09-23T21:39:00.909Z,39.09
2022-09-23T21:41:27.535Z,38.91
2022-09-23T21:43:53.873Z,39.13
2022-09-23T21:46:20.392Z,39.25
2022-09-23T21:48:47.190Z,39.34
2022-09-23T21:51:14.628Z,39.43
2022-09-23T21:53:41.022Z,39.36
2022-09-23T21:56:07.376Z,38.86
2022-09-23T21:58:33.739Z,38.91
2022-09-23T22:01:00.307Z,39.62
2022-09-23T22:03:27.013Z,39.58
2022-09-23T22:05:53.383Z,39.39
2022-09-23T22:08:19.792Z,39.63
2022-09-23T22:10:46.376Z,39.68
2022-09-23T22:13:13.804Z,39.83
2022-09-23T22:15:40.217Z,39.99
2022-09-23T22:18:07.110Z,39.91
2022-09-23T22:20:33.790Z,39.85
2022-09-23T22:23:00.155Z,39.78
2022-09-23T22:25:26.576Z,39.72
2022-09-23T22:27:53.136Z,39.90
2022-09-23T22:30:19.654Z,39.87
2022-09-23T22:32:46.057Z,40.08
2022-09-23T22:35:12.490Z,40.14
2022-09-23T22:37:38.852Z,40.01
2022-09-23T22:40:09.508Z,40.14
2022-09-23T22:42:35.938Z,40.12
2022-09-23T22:45:02.614Z,40.99
2022-09-23T22:47:29.041Z,40.81
2022-09-23T22:49:57.048Z,40.59
2022-09-23T22:52:23.809Z,40.64
2022-09-23T22:54:50.534Z,40.46
2022-09-23T22:57:17.026Z,40.63
2022-09-23T22:59:43.446Z,40.51
2022-09-23T23:02:10.244Z,40.28
2022-09-23T23:04:36.774Z,40.84
2022-09-23T23:07:03.129Z,40.98
2022-09-23T23:09:30.395Z,40.90
2022-09-23T23:11:56.983Z,41.13
2022-09-23T23:14:23.438Z,41.19
2022-09-23T23:16:50.352Z,41.21
2022-09-23T23:19:16.814Z,41.08
2022-09-23T23:21:43.356Z,41.47
2022-09-23T23:24:10.119Z,42.00
2022-09-23T23:26:36.484Z,42.22
2022-09-23T23:29:02.871Z,41.62
2022-09-23T23:31:29.613Z,41.81
2022-09-23T23:33:56.140Z,41.47
2022-09-23T23:36:22.594Z,41.59
2022-09-23T23:38:49.250Z,41.51
2022-09-23T23:41:15.726Z,41.40
2022-09-23T23:43:42.193Z,41.73
2022-09-23T23:46:09.238Z,41.79
2022-09-23T23:48:35.686Z,41.64
2022-09-23T23:51:02.182Z,41.67
2022-09-23T23:53:28.672Z,41.96
2022-09-23T23:55:55.003Z,41.68
2022-09-23T23:58:21.320Z,42.76
